Time;durP1;ratioP1;P1;durP2;ratioP2;P2;SDS_P1;SDS_P2;PMS_P1;PMS_P2;Temp;Humidity;BMP_temperature;BMP_pressure;BME280_temperature;BME280_humidity;BME280_pressure;Samples;Min_cycle;Max_cycle;Signal;HPM_P1;HPM_P2
2022/01/12 00:01:15;;;;;;;4.70;2.50;;;;;;;-11.63;72.65;100334.06;105214;1271;61066;-23
2022/01/12 00:03:43;;;;;;;4.30;1.10;;;;;;;-11.83;73.65;100335.81;104791;1271;423585;-23
2022/01/12 00:06:10;;;;;;;4.00;1.60;;;;;;;-11.49;72.92;100338.12;104807;1274;76064;-23
2022/01/12 00:08:40;;;;;;;1.90;1.20;;;;;;;-10.92;71.26;100341.52;104793;1273;74425;-23
2022/01/12 00:11:07;;;;;;;6.70;3.20;;;;;;;-10.98;70.60;100342.88;104877;1274;61015;-23
2022/01/12 00:13:35;;;;;;;1.00;0.90;;;;;;;-11.19;71.46;100343.98;105095;1271;61079;-23
2022/01/12 00:16:03;;;;;;;6.30;3.10;;;;;;;-11.43;72.32;100344.81;105166;1271;75649;-23
2022/01/12 00:18:30;;;;;;;1.70;1.50;;;;;;;-11.92;74.65;100344.08;104976;1271;76255;-23
2022/01/12 00:20:58;;;;;;;5.40;1.70;;;;;;;-11.85;74.69;100343.29;104849;1271;74716;-23
2022/01/12 00:23:25;;;;;;;9.40;2.50;;;;;;;-11.39;73.71;100341.77;104864;1271;61225;-23
2022/01/12 00:26:02;;;;;;;8.40;3.20;;;;;;;-10.97;72.16;100345.09;105097;1271;61089;-23
2022/01/12 00:34:04;;;;;;;7.30;3.60;;;;;;;-11.71;74.84;100347.73;105079;1274;74384;-23
2022/01/12 00:36:31;;;;;;;3.10;2.30;;;;;;;-11.84;75.09;100341.64;105068;1274;63659;-23
2022/01/12 00:38:59;;;;;;;7.50;1.80;;;;;;;-11.25;73.55;100343.16;105099;1271;61029;-23
2022/01/12 00:41:26;;;;;;;6.60;2.10;;;;;;;-10.95;71.17;100338.92;104742;1271;75292;-23
2022/01/12 00:43:58;;;;;;;3.70;1.70;;;;;;;-11.27;71.85;100340.89;104727;1274;75016;-22
2022/01/12 00:46:26;;;;;;;3.90;2.00;;;;;;;-11.45;71.95;100336.88;104760;1271;73378;-23
2022/01/12 00:48:54;;;;;;;7.10;2.10;;;;;;;-11.93;72.77;100336.16;104610;1271;61154;-22
2022/01/12 00:51:22;;;;;;;2.90;1.30;;;;;;;-12.25;74.05;100337.71;104690;1271;61029;-24
2022/01/12 00:53:49;;;;;;;1.40;1.00;;;;;;;-12.02;73.74;100340.92;104793;1271;75007;-21
2022/01/12 00:56:15;;;;;;;5.70;1.70;;;;;;;-11.56;71.91;100345.28;104956;1271;74851;-25
2022/01/12 00:58:42;;;;;;;7.60;2.90;;;;;;;-11.46;70.64;100343.73;104972;1271;73365;-26
2022/01/12 01:01:09;;;;;;;1.70;1.40;;;;;;;-11.84;71.33;100338.63;104933;1271;61054;-23
2022/01/12 01:03:36;;;;;;;4.00;1.80;;;;;;;-12.20;72.17;100338.69;104780;1271;61092;-23
2022/01/12 01:06:07;;;;;;;2.80;1.40;;;;;;;-12.70;72.91;100341.63;105076;1271;75528;-25
2022/01/12 01:08:37;;;;;;;2.80;1.20;;;;;;;-12.53;73.33;100343.52;105068;1271;74876;-25
2022/01/12 01:11:05;;;;;;;3.20;1.70;;;;;;;-11.75;70.88;100343.59;105125;1272;74371;-24
2022/01/12 01:13:43;;;;;;;3.90;1.70;;;;;;;-12.01;69.35;100337.95;104758;1271;61116;-22
2022/01/12 01:16:29;;;;;;;1.10;1.00;;;;;;;-12.36;69.57;100338.54;105134;1271;61027;-22
2022/01/12 01:28:37;;;;;;;1.70;1.30;;;;;;;-12.26;68.11;100332.16;101726;1310;600773;-23
2022/01/12 01:31:05;;;;;;;1.10;0.90;;;;;;;-12.63;67.80;100333.34;104423;1284;61123;-23
2022/01/12 01:33:34;;;;;;;0.80;0.80;;;;;;;-13.15;68.37;100327.55;104409;1283;61130;-24
2022/01/12 01:36:02;;;;;;;1.90;0.70;;;;;;;-13.30;69.04;100328.06;104426;1283;72841;-23
2022/01/12 01:38:30;;;;;;;2.60;1.10;;;;;;;-12.75;68.38;100328.75;104442;1280;76193;-23
2022/01/12 01:40:59;;;;;;;3.10;1.80;;;;;;;-12.55;66.32;100331.73;104477;1281;74679;-23
2022/01/12 01:54:24;;;;;;;2.70;1.20;;;;;;;-13.32;67.43;100332.64;105127;1271;74398;-23
2022/01/12 01:56:53;;;;;;;2.90;1.90;;;;;;;-13.56;68.09;100329.48;105174;1271;61137;-23
2022/01/12 01:59:21;;;;;;;3.10;1.60;;;;;;;-14.06;69.80;100324.77;105274;1271;61034;-23
2022/01/12 02:01:50;;;;;;;1.00;0.70;;;;;;;-14.44;71.63;100328.79;105267;1271;73709;-23
2022/01/12 02:04:18;;;;;;;4.00;1.60;;;;;;;-13.97;70.70;100327.27;105193;1271;74999;-23
2022/01/12 02:06:48;;;;;;;2.00;1.50;;;;;;;-13.45;69.44;100326.66;105180;1271;71795;-23
2022/01/12 02:09:16;;;;;;;6.20;1.90;;;;;;;-13.58;68.52;100327.08;105129;1271;61137;-23
2022/01/12 02:11:52;;;;;;;1.40;1.30;;;;;;;-13.97;69.25;100323.63;105222;1271;61065;-23
2022/01/12 02:14:23;;;;;;;1.50;0.90;;;;;;;-14.43;70.78;100322.98;105105;1271;72846;-23
2022/01/12 02:16:56;;;;;;;3.00;1.60;;;;;;;-14.18;70.54;100324.63;105164;1271;73123;-23
2022/01/12 02:36:13;;;;;;;2.40;2.00;;;;;;;-14.09;68.22;100323.48;105146;1271;60904;-23
2022/01/12 02:41:29;;;;;;;2.30;1.50;;;;;;;-14.86;70.73;100323.64;105146;1271;74787;-23
2022/01/12 02:54:51;;;;;;;2.70;1.50;;;;;;;-14.90;71.63;100314.31;105126;1271;72420;-23
2022/01/12 02:57:20;;;;;;;3.40;1.50;;;;;;;-14.13;69.62;100311.97;104895;1271;75942;-23
2022/01/12 03:00:04;;;;;;;10.60;2.60;;;;;;;-14.06;68.64;100312.25;105131;1271;72982;-23
2022/01/12 03:02:38;;;;;;;2.30;1.60;;;;;;;-14.37;68.85;100307.73;105148;1271;61369;-22
2022/01/12 03:05:34;;;;;;;2.50;1.60;;;;;;;-14.82;69.92;100312.63;105116;1272;62398;-23
2022/01/12 03:08:02;;;;;;;4.60;1.60;;;;;;;-14.84;71.05;100307.21;105100;1271;73197;-23
2022/01/12 03:10:31;;;;;;;4.70;2.40;;;;;;;-14.26;69.35;100308.16;105134;1274;74588;-23
2022/01/12 03:13:00;;;;;;;2.60;1.30;;;;;;;-14.11;67.86;100309.40;105109;1271;73583;-23
2022/01/12 03:15:30;;;;;;;4.10;2.20;;;;;;;-14.49;67.89;100309.76;104998;1271;61112;-23
2022/01/12 03:17:59;;;;;;;1.30;0.60;;;;;;;-14.91;69.31;100313.91;105193;1271;61138;-23
2022/01/12 03:20:27;;;;;;;2.30;1.10;;;;;;;-14.95;69.59;100310.11;105123;1271;73223;-22
2022/01/12 03:22:56;;;;;;;3.10;1.60;;;;;;;-14.27;68.32;100304.79;105149;1271;72877;-23
2022/01/12 03:25:24;;;;;;;1.90;1.00;;;;;;;-14.18;67.16;100305.77;105108;1271;73509;-23
2022/01/12 03:27:58;;;;;;;3.70;1.70;;;;;;;-14.49;68.56;100301.27;105129;1271;62857;-23
2022/01/12 03:30:34;;;;;;;3.20;1.50;;;;;;;-14.92;70.04;100298.23;105141;1274;61147;-22
2022/01/12 03:33:19;;;;;;;1.90;1.30;;;;;;;-14.88;70.02;100299.21;105142;1271;73364;-22
2022/01/12 04:10:25;;;;;;;2.00;1.60;;;;;;;-15.05;70.88;100305.02;105096;1271;74574;-23
2022/01/12 04:12:55;;;;;;;8.20;1.80;;;;;;;-14.65;69.38;100301.77;105156;1271;73579;-23
2022/01/12 04:15:23;;;;;;;2.80;2.00;;;;;;;-14.41;67.77;100300.73;105147;1273;71882;-23
2022/01/12 04:17:52;;;;;;;4.80;2.50;;;;;;;-14.61;68.18;100305.60;105139;1271;61045;-24
2022/01/12 04:20:21;;;;;;;3.40;1.90;;;;;;;-14.94;69.73;100303.82;104822;1272;61065;-23
2022/01/12 04:25:36;;;;;;;3.40;1.60;;;;;;;-14.65;70.20;100296.61;105056;1271;75764;-23
2022/01/12 04:28:05;;;;;;;4.70;2.40;;;;;;;-14.33;68.82;100298.19;105053;1273;74429;-23
2022/01/12 04:30:33;;;;;;;5.20;2.70;;;;;;;-14.59;69.53;100296.66;104855;1274;61084;-22
2022/01/12 04:33:02;;;;;;;3.50;2.10;;;;;;;-14.87;70.04;100299.40;104808;1274;61310;-23
2022/01/12 04:35:34;;;;;;;2.80;1.50;;;;;;;-15.22;71.18;100302.48;104773;1273;73220;-23
2022/01/12 04:38:03;;;;;;;3.50;2.40;;;;;;;-14.78;70.41;100300.60;104778;1274;74584;-22
2022/01/12 04:40:32;;;;;;;5.40;2.40;;;;;;;-14.45;68.89;100300.39;104683;1274;73521;-23
2022/01/12 04:43:00;;;;;;;2.50;1.80;;;;;;;-14.52;68.54;100297.79;104776;1274;61243;-23
2022/01/12 04:48:01;;;;;;;5.30;2.40;;;;;;;-15.24;70.65;100292.54;105094;1272;73304;-23
2022/01/12 04:50:35;;;;;;;7.90;3.20;;;;;;;-14.97;70.46;100293.02;104799;1274;74805;-23
2022/01/12 04:53:04;;;;;;;2.80;2.10;;;;;;;-14.70;69.80;100289.11;104806;1273;72888;-23
2022/01/12 04:55:33;;;;;;;10.00;4.10;;;;;;;-14.82;70.20;100284.44;105111;1274;61246;-23
2022/01/12 04:58:02;;;;;;;7.60;2.90;;;;;;;-15.22;71.52;100286.16;104405;1274;1002958;-23
2022/01/12 05:00:32;;;;;;;4.10;2.10;;;;;;;-15.44;72.88;100287.39;104913;1274;73524;-24
2022/01/12 05:14:10;;;;;;;6.40;3.10;;;;;;;-15.14;72.54;100274.96;104996;1274;73011;-24
2022/01/12 05:16:39;;;;;;;8.30;4.30;;;;;;;-14.66;71.19;100269.54;104851;1274;74515;-23
2022/01/12 05:19:08;;;;;;;6.20;3.60;;;;;;;-14.58;70.53;100269.03;104972;1274;74443;-23
2022/01/12 05:21:37;;;;;;;5.10;2.50;;;;;;;-14.82;71.66;100266.94;104824;1274;61272;-22
2022/01/12 05:24:06;;;;;;;3.90;2.60;;;;;;;-15.09;71.82;100269.85;104752;1274;61076;-22
2022/01/12 05:26:35;;;;;;;4.60;2.20;;;;;;;-15.13;72.48;100271.70;104832;1272;73380;-25
2022/01/12 05:29:07;;;;;;;13.00;4.50;;;;;;;-14.64;70.93;100271.00;104926;1271;74534;-25
2022/01/12 05:31:36;;;;;;;7.60;3.90;;;;;;;-14.51;70.44;100267.29;104922;1271;72757;-22
2022/01/12 05:34:05;;;;;;;8.40;4.20;;;;;;;-14.93;70.64;100267.96;104880;1271;61166;-22
2022/01/12 05:36:34;;;;;;;4.80;2.70;;;;;;;-15.38;72.43;100268.30;105046;1274;61151;-26
2022/01/12 05:39:06;;;;;;;6.00;2.50;;;;;;;-15.32;72.90;100264.73;105117;1271;73238;-25
2022/01/12 05:41:34;;;;;;;6.80;4.10;;;;;;;-14.88;71.73;100266.88;105093;1271;74559;-25
2022/01/12 05:44:06;;;;;;;9.20;5.10;;;;;;;-14.78;71.56;100270.77;105132;1271;72704;-22
2022/01/12 05:46:37;;;;;;;8.80;4.70;;;;;;;-14.93;71.60;100274.20;105088;1271;61131;-22
2022/01/12 05:52:02;;;;;;;9.20;4.00;;;;;;;-15.26;73.25;100275.46;104934;1271;73970;-24
2022/01/12 05:54:30;;;;;;;9.20;3.70;;;;;;;-14.73;71.88;100271.98;104867;1272;74344;-24
2022/01/12 05:56:59;;;;;;;8.60;4.60;;;;;;;-14.72;71.33;100273.83;104861;1274;74294;-22
2022/01/12 05:59:28;;;;;;;9.60;5.20;;;;;;;-14.90;71.83;100272.61;104926;1271;61861;-24
2022/01/12 06:01:57;;;;;;;9.70;4.40;;;;;;;-15.21;72.91;100276.16;104854;1271;61116;-24
2022/01/12 06:04:26;;;;;;;10.40;4.50;;;;;;;-15.09;73.14;100277.19;105059;1271;73949;-23
2022/01/12 06:06:56;;;;;;;7.80;3.70;;;;;;;-14.66;72.30;100274.05;105093;1271;74693;-23
2022/01/12 06:09:24;;;;;;;7.30;4.30;;;;;;;-14.43;70.94;100273.60;105160;1271;75254;-22
2022/01/12 06:11:53;;;;;;;11.00;3.50;;;;;;;-14.78;72.44;100274.95;105140;1271;61760;-22
2022/01/12 06:14:22;;;;;;;6.00;2.60;;;;;;;-15.06;72.78;100276.61;105181;1271;61025;-22
2022/01/12 06:16:54;;;;;;;7.20;3.40;;;;;;;-15.08;73.48;100284.04;105120;1271;73095;-22
2022/01/12 06:19:22;;;;;;;7.10;4.20;;;;;;;-14.60;72.52;100282.29;105001;1271;74478;-23
2022/01/12 06:22:03;;;;;;;4.60;2.80;;;;;;;-14.29;70.88;100285.50;104873;1271;73872;-22
2022/01/12 06:24:31;;;;;;;7.80;3.60;;;;;;;-14.44;71.29;100287.77;104915;1271;61202;-24
2022/01/12 06:27:00;;;;;;;5.90;3.60;;;;;;;-14.75;71.72;100289.54;104919;1271;60990;-24
2022/01/12 06:30:01;;;;;;;9.30;3.40;;;;;;;-14.88;73.37;100295.87;104924;1271;73922;-24
2022/01/12 06:32:30;;;;;;;9.20;4.40;;;;;;;-14.13;71.02;100289.63;104877;1274;73317;-22
2022/01/12 06:34:59;;;;;;;5.10;3.30;;;;;;;-14.09;70.47;100291.97;104925;1271;72830;-22
2022/01/12 06:37:27;;;;;;;6.80;3.70;;;;;;;-14.23;70.73;100292.25;104818;1271;61099;-22
2022/01/12 06:39:55;;;;;;;7.70;3.00;;;;;;;-14.62;71.73;100286.90;104774;1271;61004;-22
2022/01/12 06:42:27;;;;;;;5.70;3.10;;;;;;;-14.71;72.67;100287.06;104801;1274;73642;-22
2022/01/12 06:45:06;;;;;;;7.00;3.90;;;;;;;-14.29;72.62;100291.66;105123;1272;73528;-22
2022/01/12 06:47:35;;;;;;;5.00;3.10;;;;;;;-14.02;71.63;100292.86;104850;1272;72628;-22
2022/01/12 06:50:04;;;;;;;6.40;3.70;;;;;;;-13.81;70.60;100298.01;105141;1271;61155;-22
2022/01/12 06:52:34;;;;;;;7.50;3.90;;;;;;;-14.10;72.02;100297.76;105128;1274;61815;-22
2022/01/12 06:55:03;;;;;;;9.80;4.60;;;;;;;-14.28;72.83;100294.41;105111;1271;73628;-22
2022/01/12 06:57:32;;;;;;;5.50;3.30;;;;;;;-14.13;73.74;100291.96;105151;1273;74786;-22
2022/01/12 07:00:00;;;;;;;5.00;2.80;;;;;;;-13.56;71.86;100300.91;105109;1271;74756;-22
2022/01/12 07:02:28;;;;;;;7.20;4.10;;;;;;;-13.24;71.00;100302.84;105014;1274;61162;-22
2022/01/12 07:04:57;;;;;;;4.80;3.10;;;;;;;-13.31;71.20;100300.94;105097;1271;60980;-23
2022/01/12 07:07:26;;;;;;;5.40;2.70;;;;;;;-13.33;71.66;100308.04;105047;1271;74549;-22
2022/01/12 07:09:57;;;;;;;6.40;4.20;;;;;;;-13.51;72.09;100312.11;105127;1271;75766;-22
2022/01/12 07:12:26;;;;;;;3.50;2.40;;;;;;;-13.57;72.61;100312.21;105036;1271;73340;-23
2022/01/12 07:14:55;;;;;;;3.80;2.90;;;;;;;-13.32;72.88;100313.74;104822;1271;62790;-22
2022/01/12 07:17:23;;;;;;;5.00;2.40;;;;;;;-12.71;71.48;100311.82;104816;1271;61173;-23
2022/01/12 07:19:51;;;;;;;6.60;3.30;;;;;;;-12.53;70.16;100320.58;105021;1271;74597;-24
2022/01/12 07:22:19;;;;;;;5.30;3.00;;;;;;;-12.90;71.64;100319.20;104945;1271;75192;-24
2022/01/12 07:24:48;;;;;;;6.30;3.10;;;;;;;-12.97;71.90;100323.65;104938;1272;73361;-23
2022/01/12 07:27:20;;;;;;;;;;;;;;;-13.09;72.36;100327.27;104980;1271;61207;-24
2022/01/12 07:29:49;;;;;;;4.20;2.70;;;;;;;-13.25;73.35;100330.21;104951;1271;61025;-25
2022/01/12 07:32:17;;;;;;;4.50;2.20;;;;;;;-12.90;72.76;100330.59;104789;1273;73258;-24
2022/01/12 07:34:45;;;;;;;7.10;3.20;;;;;;;-12.40;70.70;100335.23;104984;1271;75801;-24
2022/01/12 07:37:13;;;;;;;6.70;3.40;;;;;;;-12.33;69.91;100334.77;105109;1271;73329;-23
2022/01/12 07:39:45;;;;;;;6.80;3.80;;;;;;;-12.39;70.27;100335.61;104939;1271;61126;-23
2022/01/12 07:42:14;;;;;;;8.10;3.10;;;;;;;-12.70;71.13;100338.45;105073;1271;61038;-23
2022/01/12 07:44:44;;;;;;;7.30;4.00;;;;;;;-12.87;72.14;100331.86;105128;1271;75488;-24
2022/01/12 07:47:12;;;;;;;7.70;3.70;;;;;;;-13.10;73.20;100326.23;105153;1272;75286;-23
2022/01/12 07:49:41;;;;;;;4.10;2.40;;;;;;;-13.11;74.06;100325.16;105147;1271;74417;-23
2022/01/12 07:52:10;;;;;;;5.60;2.60;;;;;;;-12.32;71.69;100319.59;105178;1271;61025;-23
2022/01/12 07:54:38;;;;;;;8.00;3.90;;;;;;;-12.05;70.30;100320.09;105129;1271;61071;-22
2022/01/12 07:57:06;;;;;;;5.60;3.50;;;;;;;-12.16;70.23;100321.43;105042;1271;75400;-23
2022/01/12 07:59:35;;;;;;;5.10;2.80;;;;;;;-12.41;72.03;100311.45;104903;1274;76086;-23
2022/01/12 08:02:03;;;;;;;5.60;3.10;;;;;;;-12.44;71.61;100315.39;105138;1271;74493;-23
2022/01/12 08:04:32;;;;;;;5.90;3.70;;;;;;;-12.69;73.03;100313.23;105164;1271;61155;-23
2022/01/12 08:07:02;;;;;;;7.10;3.90;;;;;;;-12.83;73.95;100315.44;105145;1271;61131;-23
2022/01/12 08:09:31;;;;;;;8.30;3.30;;;;;;;-12.54;72.95;100310.86;105127;1271;75965;-23
2022/01/12 08:12:00;;;;;;;5.90;3.40;;;;;;;-12.33;72.00;100305.19;105150;1272;75060;-23
2022/01/12 08:14:30;;;;;;;7.00;3.50;;;;;;;-11.94;70.81;100313.19;104965;1271;74490;-23
2022/01/12 08:16:58;;;;;;;6.40;3.40;;;;;;;-12.31;71.93;100303.72;104813;1274;61143;-23
2022/01/12 08:19:29;;;;;;;6.90;3.90;;;;;;;-12.35;71.63;100300.41;104747;1271;61210;-23
2022/01/12 08:21:57;;;;;;;11.30;5.00;;;;;;;-12.48;72.64;100302.21;104882;1271;75498;-24
2022/01/12 08:24:26;;;;;;;9.20;4.60;;;;;;;-12.52;72.70;100308.58;104868;1271;76000;-23
2022/01/12 08:27:06;;;;;;;10.50;4.30;;;;;;;-12.89;73.95;100308.88;104784;1272;74199;-23
2022/01/12 08:29:35;;;;;;;8.80;4.60;;;;;;;-12.96;74.15;100309.81;105092;1271;61141;-23
2022/01/12 08:32:04;;;;;;;6.50;4.00;;;;;;;-12.63;73.56;100305.20;105048;1271;61175;-23
2022/01/12 08:34:33;;;;;;;8.30;4.30;;;;;;;-11.88;71.03;100308.52;104901;1271;74443;-23
2022/01/12 08:37:01;;;;;;;9.50;3.70;;;;;;;-11.77;69.98;100312.01;104897;1271;76001;-23
2022/01/12 08:39:31;;;;;;;7.70;4.00;;;;;;;-11.91;70.50;100311.77;104888;1271;74178;-23
2022/01/12 08:42:00;;;;;;;7.60;4.30;;;;;;;-12.01;70.90;100313.48;104854;1271;61147;-23
2022/01/12 08:44:35;;;;;;;6.10;4.10;;;;;;;-12.13;71.21;100312.14;104826;1274;61765;-23
2022/01/12 08:47:05;;;;;;;6.40;4.00;;;;;;;-12.25;71.78;100315.28;104958;1271;75619;-23
2022/01/12 08:49:33;;;;;;;8.10;4.00;;;;;;;-12.31;72.01;100315.27;104794;1274;74983;-23
2022/01/12 08:52:04;;;;;;;8.50;3.70;;;;;;;-12.24;71.74;100309.80;105066;1271;72679;-23
2022/01/12 08:54:33;;;;;;;9.50;5.30;;;;;;;-12.46;72.59;100313.77;103327;1271;1003692;-23
2022/01/12 08:57:02;;;;;;;8.50;4.80;;;;;;;-12.65;73.31;100309.34;104918;1271;62065;-22
2022/01/12 08:59:30;;;;;;;10.00;5.10;;;;;;;-12.47;73.36;100310.90;104804;1271;74175;-23
2022/01/12 09:01:58;;;;;;;8.70;4.90;;;;;;;-12.17;72.02;100306.98;104872;1271;76354;-22
2022/01/12 09:04:27;;;;;;;7.20;5.10;;;;;;;-11.49;70.61;100309.64;104878;1274;74613;-22
2022/01/12 09:06:57;;;;;;;6.20;3.40;;;;;;;-11.40;69.88;100313.23;105057;1271;61076;-22
2022/01/12 09:09:26;;;;;;;7.50;4.30;;;;;;;-11.28;69.21;100306.85;104901;1271;61120;-22
2022/01/12 09:11:55;;;;;;;8.00;3.90;;;;;;;-11.41;69.64;100304.48;105060;1271;75359;-23
2022/01/12 09:14:23;;;;;;;8.80;3.80;;;;;;;-11.59;70.06;100299.80;105136;1271;75980;-22
2022/01/12 09:16:57;;;;;;;5.90;3.70;;;;;;;-11.74;70.17;100292.83;105165;1271;73106;-22
2022/01/12 09:19:26;;;;;;;9.80;5.00;;;;;;;-11.76;70.70;100300.33;104302;1271;1003836;-22
2022/01/12 09:21:54;;;;;;;7.70;4.30;;;;;;;-12.02;71.57;100296.55;104960;1271;61272;-22
2022/01/12 09:24:23;;;;;;;8.00;4.80;;;;;;;-11.93;71.30;100294.46;104967;1271;74159;-22
2022/01/12 09:26:51;;;;;;;6.20;3.80;;;;;;;-11.89;71.42;100287.70;105123;1271;75973;-22
2022/01/12 09:29:19;;;;;;;10.70;4.90;;;;;;;-11.81;70.67;100292.30;105148;1271;74263;-22
2022/01/12 09:31:47;;;;;;;11.20;6.10;;;;;;;-11.84;70.75;100292.38;105130;1271;62665;-22
2022/01/12 09:34:16;;;;;;;7.40;4.40;;;;;;;-11.56;70.40;100289.33;105167;1271;61148;-22
2022/01/12 09:36:44;;;;;;;5.90;4.00;;;;;;;-11.39;70.03;100287.42;105133;1271;75244;-22
2022/01/12 09:39:13;;;;;;;8.90;5.00;;;;;;;-11.56;70.25;100284.46;105146;1271;76148;-22
2022/01/12 09:41:41;;;;;;;9.30;4.90;;;;;;;-11.60;70.66;100277.15;105099;1271;73231;-23
2022/01/12 09:44:10;;;;;;;9.40;5.00;;;;;;;-11.64;70.66;100284.92;105003;1271;61155;-22
2022/01/12 09:46:39;;;;;;;9.50;4.80;;;;;;;-11.62;70.61;100272.23;104849;1271;61032;-22
2022/01/12 09:49:08;;;;;;;9.80;5.00;;;;;;;-11.53;70.91;100277.52;104913;1271;75582;-22
2022/01/12 09:51:37;;;;;;;9.10;4.80;;;;;;;-11.55;70.93;100283.98;104916;1271;75986;-23
2022/01/12 09:54:05;;;;;;;7.60;4.60;;;;;;;-11.56;71.04;100274.74;104928;1269;74147;-22
2022/01/12 09:56:33;;;;;;;6.20;3.60;;;;;;;-11.31;70.35;100279.27;104822;1271;61147;-22
2022/01/12 09:59:06;;;;;;;8.00;3.80;;;;;;;-11.30;70.44;100273.91;105001;1271;62153;-22
2022/01/12 10:01:36;;;;;;;7.70;4.30;;;;;;;-11.35;70.25;100267.76;104939;1271;75516;-23
2022/01/12 10:04:28;;;;;;;10.00;4.90;;;;;;;-11.51;70.80;100268.52;104805;1271;75771;-23
2022/01/12 10:07:04;;;;;;;8.80;4.30;;;;;;;-11.19;70.81;100256.76;104998;1274;74572;-23
2022/01/12 10:09:36;;;;;;;8.70;4.00;;;;;;;-10.65;68.99;100257.14;104647;1274;61683;-23
2022/01/12 10:12:09;;;;;;;7.30;4.20;;;;;;;-10.20;67.46;100252.60;104777;1271;62386;-23
2022/01/12 10:14:42;;;;;;;8.40;4.00;;;;;;;-10.40;67.87;100254.50;105105;1272;75682;-23
2022/01/12 10:17:11;;;;;;;10.10;5.00;;;;;;;-10.66;68.97;100247.23;104958;1272;74978;-23
2022/01/12 10:19:39;;;;;;;6.80;4.10;;;;;;;-10.59;68.80;100245.02;104836;1271;74357;-23
2022/01/12 10:22:10;;;;;;;5.60;4.00;;;;;;;-10.63;69.01;100235.67;105152;1271;61042;-23
2022/01/12 10:24:44;;;;;;;10.10;3.80;;;;;;;-10.56;68.94;100240.54;105094;1271;61159;-23
2022/01/12 10:27:14;;;;;;;;;;;;;;;-10.51;68.80;100244.38;105138;1271;75283;-23
2022/01/12 10:29:42;;;;;;;8.90;4.10;;;;;;;-10.62;69.11;100235.04;105160;1271;74640;-23
2022/01/12 10:32:13;;;;;;;8.10;4.80;;;;;;;-10.66;69.17;100224.23;105056;1271;74514;-23
2022/01/12 10:34:43;;;;;;;5.70;4.20;;;;;;;-10.69;69.92;100227.65;104982;1271;61123;-23
2022/01/12 10:37:19;;;;;;;7.30;4.10;;;;;;;-10.68;70.11;100231.04;104744;1271;61965;-23
2022/01/12 10:39:49;;;;;;;7.50;4.00;;;;;;;-10.43;69.37;100230.42;104932;1271;75553;-23
2022/01/12 10:42:28;;;;;;;11.50;4.20;;;;;;;-10.36;69.23;100223.88;105065;1274;75988;-23
2022/01/12 10:45:01;;;;;;;6.10;3.40;;;;;;;-10.27;69.18;100226.90;105076;1271;73240;-23
2022/01/12 10:47:31;;;;;;;9.10;5.30;;;;;;;-10.15;68.89;100230.17;104993;1271;62072;-23
2022/01/12 10:50:05;;;;;;;8.90;4.20;;;;;;;-10.17;69.19;100223.92;104819;1271;62044;-23
2022/01/12 10:52:35;;;;;;;6.60;4.10;;;;;;;-10.17;69.33;100216.03;104762;1271;74519;-23
2022/01/12 10:55:06;;;;;;;8.30;4.00;;;;;;;-10.02;69.51;100215.67;104780;1271;75420;-23
2022/01/12 10:57:36;;;;;;;9.60;4.90;;;;;;;-10.07;69.08;100212.05;104845;1271;73432;-23
2022/01/12 11:00:22;;;;;;;7.30;4.30;;;;;;;-9.88;68.58;100213.63;105078;1271;61871;-23
2022/01/12 11:02:52;;;;;;;9.20;3.00;;;;;;;-10.05;69.00;100206.37;105103;1271;62433;-23
2022/01/12 11:05:22;;;;;;;5.60;3.80;;;;;;;-10.09;69.64;100205.27;104982;1271;75357;-23
2022/01/12 11:07:51;;;;;;;9.70;3.70;;;;;;;-10.02;69.67;100210.46;104992;1271;74097;-23
2022/01/12 11:10:20;;;;;;;7.90;4.20;;;;;;;-9.82;69.00;100214.24;104897;1270;73084;-23
2022/01/12 11:12:49;;;;;;;6.30;3.90;;;;;;;-9.92;69.36;100208.83;104836;1271;61112;-23
2022/01/12 11:15:19;;;;;;;5.90;3.40;;;;;;;-9.92;69.13;100203.61;104683;1272;61723;-23
2022/01/12 11:17:48;;;;;;;5.40;3.50;;;;;;;-9.86;69.43;100204.09;104921;1271;75432;-23
2022/01/12 11:20:27;;;;;;;6.20;4.00;;;;;;;-9.74;68.92;100208.17;105024;1271;75875;-23
2022/01/12 11:23:09;;;;;;;9.20;4.30;;;;;;;-9.68;68.66;100205.77;104642;1271;72395;-24
2022/01/12 11:25:51;;;;;;;6.80;3.70;;;;;;;-9.70;68.71;100203.89;104986;1272;62062;-24
2022/01/12 11:28:21;;;;;;;9.40;3.70;;;;;;;-9.56;68.27;100200.79;104788;1271;61837;-23
2022/01/12 11:30:50;;;;;;;10.40;4.30;;;;;;;-9.66;68.68;100201.77;105099;1271;74575;-24
2022/01/12 11:33:42;;;;;;;10.80;3.80;;;;;;;-9.68;69.24;100198.21;104851;1271;73192;-24
2022/01/12 11:36:37;;;;;;;10.00;4.20;;;;;;;-9.59;68.87;100194.00;104817;1271;74461;-24
2022/01/12 11:39:10;;;;;;;4.90;3.30;;;;;;;-9.61;69.19;100188.26;104856;1271;61086;-24
2022/01/12 11:41:40;;;;;;;7.70;3.40;;;;;;;-9.61;68.55;100189.43;104855;1271;62704;-23
2022/01/12 11:44:20;;;;;;;9.60;3.80;;;;;;;-9.63;69.31;100195.93;104668;1271;75584;-24
2022/01/12 11:46:49;;;;;;;4.60;3.00;;;;;;;-9.57;69.23;100193.87;104651;1271;72253;-24
2022/01/12 11:49:40;;;;;;;6.20;3.60;;;;;;;-9.04;67.94;100197.50;104883;1271;72937;-23
2022/01/12 11:52:29;;;;;;;9.00;4.10;;;;;;;-8.56;65.89;100198.75;105086;1272;61158;-22
2022/01/12 11:55:24;;;;;;;5.30;2.60;;;;;;;-8.44;65.36;100195.88;105078;1271;61741;-23
2022/01/12 11:57:52;;;;;;;7.60;3.60;;;;;;;-8.60;65.79;100204.42;105097;1271;74324;-23
2022/01/12 12:00:23;;;;;;;8.70;3.80;;;;;;;-8.81;66.42;100197.69;105016;1271;75846;-23
2022/01/12 12:02:51;;;;;;;4.60;3.20;;;;;;;-9.14;67.85;100203.88;105104;1271;74461;-23
2022/01/12 12:05:22;;;;;;;8.80;4.20;;;;;;;-8.94;67.36;100204.55;105139;1271;61147;-23
2022/01/12 12:07:50;;;;;;;6.00;3.30;;;;;;;-9.24;68.23;100200.87;104743;1271;61134;-23
2022/01/12 12:10:25;;;;;;;8.90;3.90;;;;;;;-9.15;68.37;100203.20;105004;1271;75540;-23
2022/01/12 12:12:54;;;;;;;7.30;3.40;;;;;;;-9.06;68.05;100210.77;104796;1271;76057;-23
2022/01/12 12:15:24;;;;;;;8.80;4.40;;;;;;;-8.56;66.83;100206.16;104822;1271;75148;-23
2022/01/12 12:17:54;;;;;;;8.00;4.00;;;;;;;-8.27;65.83;100207.56;104845;1271;61811;-23
2022/01/12 12:20:23;;;;;;;8.60;4.60;;;;;;;-8.45;65.98;100203.95;104672;1271;62048;-23
2022/01/12 12:22:55;;;;;;;7.90;4.30;;;;;;;-8.85;67.12;100203.88;104814;1271;74438;-23
2022/01/12 12:25:25;;;;;;;7.40;4.20;;;;;;;-9.11;68.27;100198.21;105162;1271;76026;-22
2022/01/12 12:27:58;;;;;;;7.90;3.80;;;;;;;-9.27;69.24;100193.75;105037;1271;74882;-23
2022/01/12 12:30:29;;;;;;;6.80;4.10;;;;;;;-9.24;69.40;100196.32;104803;1272;62124;-23
2022/01/12 12:33:03;;;;;;;9.40;4.10;;;;;;;-9.35;69.87;100186.36;104644;1271;61854;-23
2022/01/12 12:35:32;;;;;;;8.80;4.50;;;;;;;-9.19;69.76;100185.64;104814;1271;75711;-23
2022/01/12 12:38:05;;;;;;;7.70;4.30;;;;;;;-8.80;68.60;100186.59;105148;1271;76017;-23
2022/01/12 12:40:37;;;;;;;10.60;5.30;;;;;;;-8.49;67.28;100196.66;104735;1271;73916;-23
2022/01/12 12:43:22;;;;;;;7.40;4.40;;;;;;;-8.62;67.74;100194.63;104801;1271;61026;-23
2022/01/12 12:45:56;;;;;;;8.40;5.10;;;;;;;-8.83;68.26;100187.23;104992;1271;62000;-23
2022/01/12 12:48:30;;;;;;;10.50;4.60;;;;;;;-9.21;69.70;100185.09;104841;1271;74208;-23
2022/01/12 12:50:58;;;;;;;;;;;;;;;-9.23;69.91;100186.23;105155;1271;74880;-23
2022/01/12 12:53:30;;;;;;;11.00;5.40;;;;;;;-9.33;70.25;100186.74;105162;1271;74563;-22
2022/01/12 12:55:59;;;;;;;5.70;3.30;;;;;;;-9.36;70.47;100187.52;104942;1271;61105;-23
2022/01/12 12:58:33;;;;;;;6.90;4.20;;;;;;;-8.86;69.01;100180.29;105146;1271;61887;-23
2022/01/12 13:01:06;;;;;;;6.60;3.80;;;;;;;-8.69;68.33;100178.35;105045;1271;75566;-24
2022/01/12 13:03:35;;;;;;;5.80;3.70;;;;;;;-8.68;68.00;100184.09;104629;1272;72276;-23
2022/01/12 13:06:04;;;;;;;7.20;3.60;;;;;;;-8.88;68.66;100178.41;104735;1271;74195;-21
2022/01/12 13:08:33;;;;;;;6.40;3.90;;;;;;;-9.00;68.92;100177.71;104919;1271;61164;-22
2022/01/12 13:11:08;;;;;;;7.70;4.40;;;;;;;-9.39;70.37;100175.36;104904;1271;61836;-22
2022/01/12 13:13:36;;;;;;;12.20;4.30;;;;;;;-9.51;70.65;100179.17;104909;1271;75394;-24
2022/01/12 13:16:08;;;;;;;6.10;3.60;;;;;;;-9.64;71.24;100180.63;104974;1271;76104;-25